Time;durP1;ratioP1;P1;durP2;ratioP2;P2;SDS_P1;SDS_P2;PMS_P1;PMS_P2;Temp;Humidity;BMP_temperature;BMP_pressure;BME280_temperature;BME280_humidity;BME280_pressure;Samples;Min_cycle;Max_cycle;Signal;HPM_P1;HPM_P2
2022/08/25 00:01:14;;;;;;;15.45;13.95;;;19.70;99.90;;;;;;5032860;28;20059;-64
2022/08/25 00:03:41;;;;;;;12.20;10.88;;;19.60;99.90;;;;;;5028851;28;20060;-64
2022/08/25 00:06:08;;;;;;;14.93;11.05;;;19.30;99.90;;;;;;5015224;28;20522;-64
2022/08/25 00:08:36;;;;;;;13.85;12.45;;;19.40;99.90;;;;;;5015021;28;20073;-64
2022/08/25 00:11:04;;;;;;;16.00;14.50;;;19.30;99.90;;;;;;5032901;28;20045;-64
2022/08/25 00:13:30;;;;;;;17.88;16.00;;;19.70;99.90;;;;;;5032859;28;20044;-64
2022/08/25 00:15:56;;;;;;;19.52;15.30;;;19.70;99.90;;;;;;5032659;28;20029;-64
2022/08/25 00:18:21;;;;;;;16.95;14.32;;;19.70;99.90;;;;;;5032787;28;20034;-64
2022/08/25 00:20:47;;;;;;;16.98;14.77;;;19.60;99.90;;;;;;5032569;28;20041;-64
2022/08/25 00:23:13;;;;;;;17.63;13.93;;;19.50;99.90;;;;;;5015012;28;20038;-64
2022/08/25 00:25:39;;;;;;;12.57;11.30;;;19.30;99.90;;;;;;5014873;28;20167;-64
2022/08/25 00:28:04;;;;;;;13.00;11.68;;;19.60;99.90;;;;;;5014916;28;20120;-64
2022/08/25 00:30:30;;;;;;;13.88;11.00;;;19.80;99.90;;;;;;5014695;28;20088;-64
2022/08/25 00:32:55;;;;;;;12.38;9.38;;;19.70;99.90;;;;;;5014932;28;20541;-64
2022/08/25 00:35:22;;;;;;;10.77;8.85;;;19.40;99.90;;;;;;5032553;28;20045;-64
2022/08/25 00:37:47;;;;;;;10.90;9.38;;;21.10;99.90;;;;;;5015206;28;20112;-63
2022/08/25 00:40:13;;;;;;;12.32;8.90;;;19.90;99.90;;;;;;5032248;28;20075;-64
2022/08/25 00:42:40;;;;;;;9.23;8.23;;;19.90;99.90;;;;;;5014670;28;20056;-64
2022/08/25 00:45:07;;;;;;;10.18;7.88;;;19.80;99.90;;;;;;5032451;28;20064;-64
2022/08/25 00:47:33;;;;;;;13.25;9.10;;;19.80;99.90;;;;;;5014954;28;20045;-64
2022/08/25 00:50:02;;;;;;;10.55;7.60;;;19.90;99.90;;;;;;5014539;28;20601;-64
2022/08/25 00:52:36;;;;;;;10.43;6.47;;;19.90;99.90;;;;;;5014477;28;20033;-63
2022/08/25 00:55:30;;;;;;;11.18;6.38;;;20.10;99.90;;;;;;5014521;28;20468;-64
2022/08/25 00:57:59;;;;;;;9.65;6.32;;;20.00;99.90;;;;;;5032455;28;20048;-64
2022/08/25 01:00:32;;;;;;;10.23;6.25;;;19.90;99.90;;;;;;5014831;28;20056;-64
2022/08/25 01:02:57;;;;;;;7.43;5.40;;;20.10;99.90;;;;;;5032375;28;20112;-65
2022/08/25 01:05:25;;;;;;;11.48;5.93;;;20.20;99.90;;;;;;5032337;28;20052;-64
2022/08/25 01:07:52;;;;;;;8.45;6.00;;;20.00;99.90;;;;;;5014568;28;20176;-63
2022/08/25 01:10:20;;;;;;;6.40;4.72;;;20.10;99.90;;;;;;5035517;28;20046;-63
2022/08/25 01:12:46;;;;;;;6.47;4.93;;;20.20;99.90;;;;;;5035922;28;20471;-64
2022/08/25 01:15:13;;;;;;;11.35;5.43;;;20.00;99.90;;;;;;5035805;28;20121;-64
2022/08/25 01:17:54;;;;;;;7.20;5.43;;;20.00;99.90;;;;;;5017895;28;20041;-64
2022/08/25 01:20:24;;;;;;;8.13;4.90;;;20.30;99.90;;;;;;5035728;28;20053;-63
2022/08/25 01:22:51;;;;;;;10.75;4.78;;;20.00;99.90;;;;;;5035865;28;20087;-64
2022/08/25 01:25:38;;;;;;;8.70;4.88;;;19.80;99.90;;;;;;5035637;28;20037;-64
2022/08/25 01:28:04;;;;;;;8.93;4.85;;;20.30;99.90;;;;;;5005209;28;20041;-64
2022/08/25 01:30:30;;;;;;;6.18;4.18;;;20.10;99.90;;;;;;5017594;28;20072;-64
2022/08/25 01:32:56;;;;;;;5.50;4.28;;;20.20;99.90;;;;;;5035678;28;20041;-64
2022/08/25 01:35:22;;;;;;;5.68;3.97;;;20.10;99.90;;;;;;5035290;28;20037;-64
2022/08/25 01:37:48;;;;;;;4.72;3.50;;;20.30;99.90;;;;;;5017586;28;20048;-64
2022/08/25 01:40:13;;;;;;;7.15;3.90;;;20.40;99.90;;;;;;5035257;28;20120;-64
2022/08/25 01:43:12;;;;;;;9.45;4.07;;;20.40;99.90;;;;;;5017663;28;20053;-63
2022/08/25 01:45:40;;;;;;;10.05;3.60;;;20.80;99.90;;;;;;5021151;28;20054;-64
2022/08/25 01:48:07;;;;;;;10.15;3.70;;;20.50;99.90;;;;;;5035092;28;20040;-64
2022/08/25 01:50:33;;;;;;;4.95;3.80;;;20.40;99.90;;;;;;5017259;28;20041;-64
2022/08/25 01:53:05;;;;;;;10.23;3.83;;;20.50;99.90;;;;;;5034936;28;20041;-64
2022/08/25 01:55:50;;;;;;;6.20;4.25;;;20.50;99.90;;;;;;5017226;28;20052;-64
2022/08/25 01:58:17;;;;;;;7.90;3.42;;;20.50;99.90;;;;;;5034969;28;20480;-64
2022/08/25 02:00:47;;;;;;;5.45;3.63;;;20.50;99.90;;;;;;5034837;28;20551;-64
2022/08/25 02:03:13;;;;;;;6.93;3.22;;;20.60;99.90;;;;;;5017164;28;20403;-64
2022/08/25 02:05:38;;;;;;;7.13;3.58;;;20.50;99.90;;;;;;5016910;28;20046;-64
2022/08/25 02:08:04;;;;;;;4.97;3.40;;;20.30;99.90;;;;;;5017077;28;20394;-64
2022/08/25 02:10:31;;;;;;;4.75;3.28;;;20.50;99.90;;;;;;5034439;28;20467;-63
2022/08/25 02:12:57;;;;;;;9.10;3.45;;;20.70;99.90;;;;;;5017066;28;20096;-64
2022/08/25 02:15:22;;;;;;;4.70;2.70;;;20.70;99.90;;;;;;5034639;28;20033;-63
2022/08/25 02:17:48;;;;;;;7.18;3.85;;;20.30;99.90;;;;;;5016808;28;20037;-64
2022/08/25 02:20:13;;;;;;;5.15;3.30;;;20.50;99.90;;;;;;5034377;28;20040;-64
2022/08/25 02:22:39;;;;;;;5.13;2.88;;;20.20;99.90;;;;;;5034506;28;20518;-64
2022/08/25 02:25:05;;;;;;;6.35;3.20;;;20.30;99.90;;;;;;5016709;28;20037;-64
2022/08/25 02:27:31;;;;;;;7.50;3.47;;;20.40;99.90;;;;;;5016632;28;20087;-64
2022/08/25 02:29:57;;;;;;;7.63;3.08;;;20.50;99.90;;;;;;5034406;28;20042;-64
2022/08/25 02:32:22;;;;;;;4.95;2.92;;;20.40;99.90;;;;;;5034278;28;20091;-63
2022/08/25 02:34:48;;;;;;;5.47;3.40;;;20.20;99.90;;;;;;5016560;28;20044;-64
2022/08/25 02:37:13;;;;;;;4.68;2.63;;;20.30;99.90;;;;;;5016464;28;20384;-64
2022/08/25 02:39:39;;;;;;;6.13;3.28;;;20.40;99.90;;;;;;5034071;28;20038;-64
2022/08/25 02:42:05;;;;;;;3.88;2.72;;;20.10;99.90;;;;;;5034161;28;20602;-64
2022/08/25 02:44:30;;;;;;;4.75;2.75;;;20.80;99.90;;;;;;5016180;28;20042;-64
2022/08/25 02:46:56;;;;;;;5.93;2.90;;;20.40;99.90;;;;;;5032427;28;20414;-64
2022/08/25 02:49:23;;;;;;;7.68;2.80;;;20.10;99.90;;;;;;5016071;28;20081;-64
2022/08/25 02:51:48;;;;;;;7.82;2.85;;;20.20;99.90;;;;;;5033792;28;20048;-64
2022/08/25 02:54:14;;;;;;;6.20;2.90;;;20.20;99.90;;;;;;5033923;28;20033;-64
2022/08/25 02:56:41;;;;;;;6.30;2.70;;;21.80;99.90;;;;;;5016173;28;20048;-64
2022/08/25 02:59:07;;;;;;;6.22;2.70;;;20.10;99.90;;;;;;5016289;28;20042;-64
2022/08/25 03:01:33;;;;;;;5.50;2.63;;;20.30;99.90;;;;;;5033802;28;20458;-64
2022/08/25 03:04:00;;;;;;;5.53;2.83;;;20.10;99.90;;;;;;5033410;28;20049;-64
2022/08/25 03:06:27;;;;;;;7.55;3.15;;;20.10;99.90;;;;;;5015698;28;20052;-64
2022/08/25 03:08:53;;;;;;;4.78;2.25;;;20.10;99.90;;;;;;5033424;28;20084;-64
2022/08/25 03:11:19;;;;;;;4.20;2.42;;;20.40;99.90;;;;;;5015825;28;20033;-64
2022/08/25 03:13:45;;;;;;;5.40;2.70;;;20.30;99.90;;;;;;5015876;28;20049;-64
2022/08/25 03:16:11;;;;;;;4.25;3.10;;;20.20;99.90;;;;;;5033622;28;20031;-64
2022/08/25 03:18:39;;;;;;;3.33;2.80;;;20.50;99.90;;;;;;5033457;28;20389;-62
2022/08/25 03:21:05;;;;;;;5.10;2.50;;;20.20;99.90;;;;;;5015474;28;20088;-63
2022/08/25 03:23:31;;;;;;;4.95;2.53;;;20.30;99.90;;;;;;5015681;28;20163;-63
2022/08/25 03:28:41;;;;;;;6.15;2.70;;;20.40;99.90;;;;;;5015538;28;20484;-64
2022/08/25 03:31:07;;;;;;;5.72;2.55;;;20.00;99.90;;;;;;5032729;28;20041;-63
2022/08/25 03:33:32;;;;;;;7.60;3.38;;;20.40;99.90;;;;;;5015503;28;20052;-63
2022/08/25 03:35:58;;;;;;;8.88;2.35;;;20.20;99.90;;;;;;5033076;28;20033;-64
2022/08/25 03:38:25;;;;;;;3.83;2.40;;;19.90;99.90;;;;;;5015612;28;20052;-64
2022/08/25 03:40:52;;;;;;;4.00;2.40;;;20.00;99.90;;;;;;5033124;28;20048;-64
2022/08/25 03:43:18;;;;;;;4.07;2.80;;;20.00;99.90;;;;;;5033000;28;20111;-64
2022/08/25 03:45:45;;;;;;;6.70;2.70;;;19.90;99.90;;;;;;5032902;28;20053;-63
2022/08/25 03:48:11;;;;;;;5.38;2.35;;;19.90;99.90;;;;;;5032802;28;20044;-64
2022/08/25 03:50:44;;;;;;;4.28;2.15;;;20.20;99.90;;;;;;5033132;28;20060;-64
2022/08/25 03:53:09;;;;;;;6.00;2.60;;;20.10;99.90;;;;;;5015228;28;20060;-63
2022/08/25 03:55:35;;;;;;;3.97;2.33;;;20.10;99.90;;;;;;5032965;28;20492;-64
2022/08/25 03:58:00;;;;;;;4.50;2.35;;;20.20;99.90;;;;;;5032817;28;20041;-64
2022/08/25 04:00:26;;;;;;;9.63;2.88;;;20.20;99.90;;;;;;5032366;28;20037;-64
2022/08/25 04:02:52;;;;;;;6.60;2.60;;;20.00;99.90;;;;;;5032613;28;20167;-64
2022/08/25 04:05:19;;;;;;;5.90;2.65;;;20.10;99.90;;;;;;5032538;28;20049;-63
2022/08/25 04:07:44;;;;;;;5.82;2.67;;;19.80;99.90;;;;;;5015227;28;20452;-64
2022/08/25 04:10:11;;;;;;;6.15;2.65;;;20.00;99.90;;;;;;5032625;28;20117;-64
2022/08/25 04:12:37;;;;;;;4.65;2.42;;;20.10;99.90;;;;;;5014856;28;20045;-64
2022/08/25 04:15:04;;;;;;;4.00;2.33;;;20.00;99.90;;;;;;5014941;28;20045;-63
2022/08/25 04:17:30;;;;;;;5.80;2.72;;;19.70;99.90;;;;;;5014816;28;20048;-63
2022/08/25 04:19:56;;;;;;;3.83;2.40;;;19.90;99.90;;;;;;5032704;28;20166;-64
2022/08/25 04:22:22;;;;;;;5.05;2.72;;;19.70;99.90;;;;;;5015066;28;20099;-64
2022/08/25 04:24:48;;;;;;;3.95;2.25;;;19.80;99.90;;;;;;5032525;28;20500;-63
2022/08/25 04:27:14;;;;;;;4.38;2.58;;;19.80;99.90;;;;;;5032567;28;20034;-63
2022/08/25 04:29:40;;;;;;;5.32;3.00;;;19.80;99.90;;;;;;5032377;28;20042;-64
2022/08/25 04:32:05;;;;;;;5.32;2.33;;;19.80;99.90;;;;;;5032392;28;20434;-64
2022/08/25 04:34:31;;;;;;;3.97;2.58;;;19.80;99.90;;;;;;5014804;28;20060;-64
2022/08/25 04:37:01;;;;;;;3.38;2.33;;;19.80;99.90;;;;;;5032535;28;20040;-64
2022/08/25 04:39:28;;;;;;;6.93;2.63;;;19.80;99.90;;;;;;5014764;28;20251;-63
2022/08/25 04:41:54;;;;;;;7.43;2.58;;;19.80;99.90;;;;;;5032364;28;20044;-64
2022/08/25 04:44:20;;;;;;;6.03;2.38;;;20.20;99.90;;;;;;5016587;28;20040;-63
2022/08/25 04:46:45;;;;;;;4.72;2.47;;;20.00;99.90;;;;;;5018270;28;20033;-64
2022/08/25 04:49:11;;;;;;;4.25;2.15;;;20.00;99.90;;;;;;5036007;28;20091;-64
2022/08/25 04:51:39;;;;;;;6.93;2.30;;;20.00;99.90;;;;;;5036004;28;20065;-63
2022/08/25 04:54:08;;;;;;;6.95;2.55;;;19.70;99.90;;;;;;5036124;28;20041;-64
2022/08/25 04:56:34;;;;;;;4.95;2.45;;;20.00;99.90;;;;;;5018327;28;20096;-64
2022/08/25 04:59:12;;;;;;;3.88;2.28;;;19.80;99.90;;;;;;5036138;28;20495;-64
2022/08/25 05:01:39;;;;;;;5.15;2.42;;;20.00;99.90;;;;;;5036021;28;20483;-64
2022/08/25 05:04:08;;;;;;;7.57;3.00;;;20.00;99.90;;;;;;5017956;28;20449;-64
2022/08/25 05:06:34;;;;;;;4.90;2.58;;;19.90;99.90;;;;;;5036041;28;20045;-64
2022/08/25 05:09:00;;;;;;;2.72;2.08;;;19.90;99.90;;;;;;5035921;28;20045;-64
2022/08/25 05:11:26;;;;;;;5.75;2.60;;;20.00;99.90;;;;;;5035869;28;20399;-63
2022/08/25 05:13:53;;;;;;;5.45;2.28;;;20.20;99.90;;;;;;5035628;28;20033;-64
2022/08/25 05:16:21;;;;;;;4.40;2.90;;;19.90;99.90;;;;;;5001807;28;20484;-64
2022/08/25 05:18:47;;;;;;;5.32;2.65;;;20.00;99.90;;;;;;5017853;28;20539;-63
2022/08/25 05:21:16;;;;;;;4.78;2.53;;;20.00;99.90;;;;;;5035705;28;20084;-64
2022/08/25 05:23:42;;;;;;;7.93;2.67;;;19.90;99.90;;;;;;5018100;28;20038;-64
2022/08/25 05:26:14;;;;;;;4.78;2.67;;;19.90;99.90;;;;;;5035559;28;20029;-64
2022/08/25 05:28:40;;;;;;;4.78;2.20;;;20.20;99.90;;;;;;5035320;28;20077;-64
2022/08/25 05:31:08;;;;;;;7.60;2.67;;;20.00;99.90;;;;;;5017850;28;20048;-64
2022/08/25 05:33:35;;;;;;;5.75;2.42;;;20.20;99.90;;;;;;5017983;28;20048;-64
2022/08/25 05:36:01;;;;;;;8.27;3.20;;;20.10;99.90;;;;;;5035485;28;20046;-64
2022/08/25 05:38:27;;;;;;;5.60;2.70;;;20.10;99.90;;;;;;5035369;28;20029;-64
2022/08/25 05:40:57;;;;;;;7.50;2.55;;;20.10;99.90;;;;;;5017417;28;20124;-63
2022/08/25 05:43:23;;;;;;;9.20;3.17;;;20.40;99.90;;;;;;5017824;28;20056;-64
2022/08/25 05:45:49;;;;;;;4.43;2.33;;;20.10;99.90;;;;;;5017348;28;20038;-63
2022/08/25 05:48:14;;;;;;;8.25;2.50;;;20.20;99.90;;;;;;5034963;28;20090;-63
2022/08/25 05:50:40;;;;;;;5.35;2.45;;;20.30;99.90;;;;;;5035115;28;20045;-64
2022/08/25 05:53:06;;;;;;;6.70;2.80;;;20.20;99.90;;;;;;5035078;28;20077;-64
2022/08/25 05:55:31;;;;;;;6.50;2.75;;;20.50;99.90;;;;;;5016892;28;20069;-63
2022/08/25 05:57:57;;;;;;;7.45;2.75;;;20.10;99.90;;;;;;5035227;28;20107;-64
2022/08/25 06:00:23;;;;;;;3.60;2.53;;;20.50;99.90;;;;;;5034788;28;20112;-64
2022/08/25 06:02:49;;;;;;;9.05;2.97;;;20.30;99.90;;;;;;5033515;28;20175;-64
2022/08/25 06:05:20;;;;;;;8.43;2.88;;;20.60;99.90;;;;;;5016260;28;20053;-63
2022/08/25 06:07:48;;;;;;;5.07;2.15;;;20.70;99.90;;;;;;5014124;28;20557;-64
2022/08/25 06:10:14;;;;;;;7.57;2.50;;;20.60;99.90;;;;;;5033435;28;20424;-63
2022/08/25 06:12:46;;;;;;;4.88;2.38;;;20.50;99.90;;;;;;5015931;28;20044;-63
2022/08/25 06:15:17;;;;;;;8.13;2.85;;;20.80;99.90;;;;;;5016743;28;20049;-63
2022/08/25 06:17:43;;;;;;;4.07;2.53;;;21.00;99.90;;;;;;5012320;28;20034;-64
2022/08/25 06:20:14;;;;;;;3.67;2.28;;;21.30;99.90;;;;;;4999013;28;20381;-63
2022/08/25 06:22:40;;;;;;;6.03;3.00;;;21.40;99.90;;;;;;4999667;28;20119;-63
2022/08/25 06:25:08;;;;;;;5.93;2.53;;;21.40;99.90;;;;;;5015605;28;20053;-63
2022/08/25 06:27:34;;;;;;;5.25;2.58;;;21.60;99.90;;;;;;5020663;28;20033;-63
2022/08/25 06:30:03;;;;;;;5.07;2.47;;;21.80;99.90;;;;;;5032599;28;20052;-63
2022/08/25 06:32:38;;;;;;;5.22;2.20;;;22.10;99.90;;;;;;5034155;28;20083;-63
2022/08/25 06:35:04;;;;;;;;;;;22.20;99.90;;;;;;5034533;28;20040;-63
2022/08/25 06:37:29;;;;;;;4.90;2.03;;;21.90;99.90;;;;;;4999856;28;20039;-63
2022/08/25 06:39:55;;;;;;;4.55;2.55;;;22.30;99.90;;;;;;5013357;28;20551;-63
2022/08/25 06:42:21;;;;;;;4.97;2.33;;;22.30;99.90;;;;;;5031077;28;20053;-63
2022/08/25 06:44:46;;;;;;;6.60;2.78;;;22.70;99.90;;;;;;5034026;28;20083;-63
2022/08/25 06:47:14;;;;;;;3.47;2.20;;;22.80;99.90;;;;;;5015104;28;20038;-63
2022/08/25 06:49:41;;;;;;;6.38;2.60;;;22.80;99.90;;;;;;5011379;28;20049;-64
2022/08/25 06:52:07;;;;;;;3.92;2.08;;;22.90;99.90;;;;;;5033822;28;20053;-64
2022/08/25 06:54:32;;;;;;;6.90;2.50;;;23.80;99.90;;;;;;5016122;28;20038;-65
2022/08/25 06:56:58;;;;;;;5.50;2.33;;;23.10;99.90;;;;;;5033995;28;20029;-65
2022/08/25 06:59:24;;;;;;;5.25;2.95;;;22.90;99.90;;;;;;5034191;28;20041;-65
2022/08/25 07:01:49;;;;;;;8.07;2.50;;;23.20;99.90;;;;;;5029890;28;20403;-64
2022/08/25 07:04:15;;;;;;;7.40;2.53;;;23.10;99.90;;;;;;5015691;28;20124;-64
2022/08/25 07:06:41;;;;;;;7.50;2.60;;;23.30;99.90;;;;;;5031642;28;20037;-64
2022/08/25 07:09:08;;;;;;;6.80;2.42;;;23.20;99.90;;;;;;5015722;28;20041;-64
2022/08/25 07:11:34;;;;;;;7.45;2.55;;;23.40;99.90;;;;;;5033525;28;20047;-64
2022/08/25 07:14:02;;;;;;;13.27;3.30;;;23.70;99.90;;;;;;5015994;28;20045;-65
2022/08/25 07:16:28;;;;;;;8.80;2.33;;;23.20;99.90;;;;;;5015990;28;20056;-64
2022/08/25 07:18:55;;;;;;;5.28;2.22;;;23.70;99.90;;;;;;5033186;28;20048;-64
2022/08/25 07:21:25;;;;;;;6.15;2.40;;;23.40;99.90;;;;;;5015536;28;20050;-64
2022/08/25 07:23:51;;;;;;;8.52;2.65;;;23.60;99.90;;;;;;5015527;28;20084;-64
2022/08/25 07:26:22;;;;;;;5.13;2.30;;;23.70;99.90;;;;;;5015606;28;20056;-64
2022/08/25 07:28:48;;;;;;;4.63;2.17;;;23.60;99.90;;;;;;5015517;28;20049;-64
2022/08/25 07:31:14;;;;;;;5.60;2.10;;;23.60;99.90;;;;;;5033083;28;20112;-64
2022/08/25 07:36:24;;;;;;;7.03;2.33;;;23.80;99.90;;;;;;5033175;28;20038;-65
2022/08/25 07:38:50;;;;;;;4.13;2.28;;;23.80;99.90;;;;;;5033206;28;20034;-64
2022/08/25 07:41:16;;;;;;;5.82;2.50;;;24.00;99.90;;;;;;5032844;28;20399;-64
2022/08/25 07:43:41;;;;;;;11.20;3.00;;;23.80;99.90;;;;;;5032956;28;20052;-64
2022/08/25 07:46:07;;;;;;;14.23;2.42;;;23.90;99.90;;;;;;5032777;28;20474;-64
2022/08/25 07:48:33;;;;;;;8.10;2.78;;;24.10;99.90;;;;;;5032741;28;20112;-64
2022/08/25 07:50:58;;;;;;;8.23;2.42;;;24.00;99.90;;;;;;5033070;28;20033;-64
2022/08/25 07:53:24;;;;;;;6.15;2.20;;;24.10;99.90;;;;;;5032885;28;20091;-64
2022/08/25 07:55:50;;;;;;;4.63;2.70;;;24.30;99.90;;;;;;5033092;28;20418;-64
2022/08/25 07:58:17;;;;;;;7.28;2.58;;;24.20;99.90;;;;;;5033077;28;20034;-64
2022/08/25 08:00:46;;;;;;;8.55;2.33;;;24.40;99.90;;;;;;5032943;28;20507;-64
2022/08/25 08:03:12;;;;;;;9.77;1.85;;;24.50;99.90;;;;;;5015142;28;20045;-64
2022/08/25 08:05:40;;;;;;;7.47;2.00;;;24.60;99.90;;;;;;5030148;28;20537;-64
2022/08/25 08:08:05;;;;;;;7.75;2.35;;;24.70;99.90;;;;;;5032970;28;20045;-65
2022/08/25 08:10:31;;;;;;;7.40;2.10;;;24.80;99.90;;;;;;5032506;28;20180;-64
2022/08/25 08:12:57;;;;;;;7.05;2.20;;;24.60;99.90;;;;;;5032745;28;20038;-64
2022/08/25 08:15:22;;;;;;;6.90;2.10;;;25.00;99.90;;;;;;5031919;28;20049;-64
2022/08/25 08:17:48;;;;;;;5.53;2.53;;;24.90;99.90;;;;;;5033467;28;20120;-64
2022/08/25 08:20:13;;;;;;;4.43;2.58;;;25.00;99.90;;;;;;5036106;28;20399;-64
2022/08/25 08:22:41;;;;;;;4.82;2.75;;;25.00;99.90;;;;;;5018408;28;20041;-64
2022/08/25 08:25:09;;;;;;;5.40;2.30;;;25.10;99.90;;;;;;5018303;28;20040;-64
2022/08/25 08:27:35;;;;;;;5.47;2.35;;;25.40;99.90;;;;;;5033592;28;20042;-64
2022/08/25 08:30:01;;;;;;;5.95;1.90;;;25.30;99.90;;;;;;5036332;28;20391;-64
2022/08/25 08:32:26;;;;;;;4.25;2.20;;;27.00;99.90;;;;;;5036134;28;20061;-63
2022/08/25 08:34:52;;;;;;;4.47;2.17;;;25.60;99.90;;;;;;5035979;28;20076;-64
2022/08/25 08:37:18;;;;;;;3.60;2.47;;;25.40;99.90;;;;;;5018368;28;20395;-64
2022/08/25 08:39:44;;;;;;;5.38;2.10;;;25.60;99.90;;;;;;5017775;28;20041;-64
2022/08/25 08:42:54;;;;;;;5.15;2.03;;;25.80;99.90;;;;;;5034568;28;20049;-64
2022/08/25 08:45:50;;;;;;;3.72;1.98;;;25.90;99.90;;;;;;4958745;28;20046;-64
2022/08/25 08:48:41;;;;;;;5.85;2.00;;;25.90;99.90;;;;;;5033264;28;20045;-65
2022/08/25 08:51:25;;;;;;;2.97;1.77;;;26.10;99.90;;;;;;5034282;28;20049;-65
2022/08/25 08:54:12;;;;;;;3.22;1.90;;;26.20;99.90;;;;;;5018489;28;20395;-65
2022/08/25 08:56:42;;;;;;;6.30;1.80;;;27.20;99.90;;;;;;5018559;28;20060;-64
2022/08/25 08:59:18;;;;;;;4.50;1.50;;;26.40;99.90;;;;;;5036397;28;20038;-65
2022/08/25 09:01:55;;;;;;;4.43;1.67;;;26.20;99.90;;;;;;5018157;28;20428;-64
2022/08/25 09:04:52;;;;;;;5.88;1.70;;;26.60;99.90;;;;;;5017997;28;20068;-65
2022/08/25 09:07:22;;;;;;;6.93;2.42;;;26.90;99.90;;;;;;4994056;28;20508;-64
2022/08/25 09:09:49;;;;;;;6.05;1.90;;;26.80;99.90;;;;;;5035734;28;20049;-65
2022/08/25 09:12:18;;;;;;;4.30;1.73;;;27.00;99.90;;;;;;5035268;28;20088;-65
2022/08/25 09:15:20;;;;;;;7.45;1.65;;;27.30;99.90;;;;;;5035376;28;20048;-65
2022/08/25 09:18:22;;;;;;;11.90;1.63;;;27.20;99.90;;;;;;4987836;28;20045;-65
2022/08/25 09:20:53;;;;;;;5.60;1.23;;;27.40;99.90;;;;;;4988792;28;20132;-65
2022/08/25 09:23:43;;;;;;;4.97;1.50;;;27.50;99.90;;;;;;5016798;28;20042;-65
2022/08/25 09:26:28;;;;;;;4.85;1.40;;;27.60;99.90;;;;;;5016815;28;20042;-63
2022/08/25 09:29:08;;;;;;;5.53;1.38;;;27.60;99.90;;;;;;5017432;28;20084;-64
2022/08/25 09:31:40;;;;;;;3.60;1.33;;;27.80;99.90;;;;;;5030841;28;20052;-64
2022/08/25 09:34:20;;;;;;;3.40;1.20;;;27.90;99.90;;;;;;5034842;28;20044;-64
2022/08/25 09:36:49;;;;;;;10.23;1.50;;;28.00;99.90;;;;;;5015264;28;20052;-65
2022/08/25 09:39:15;;;;;;;5.30;1.30;;;27.80;99.90;;;;;;5018814;28;20052;-65
2022/08/25 09:41:56;;;;;;;3.05;1.58;;;28.70;99.90;;;;;;5031775;28;20041;-65
2022/08/25 09:44:33;;;;;;;4.15;1.73;;;28.00;99.90;;;;;;5027933;28;20037;-65
2022/08/25 09:47:06;;;;;;;4.80;1.40;;;28.20;99.90;;;;;;5016622;28;20037;-65
2022/08/25 09:49:59;;;;;;;4.68;1.40;;;28.20;99.90;;;;;;5033835;28;20041;-64
2022/08/25 09:52:27;;;;;;;3.42;1.67;;;28.40;99.90;;;;;;5034876;28;20404;-64
2022/08/25 09:55:20;;;;;;;3.33;1.33;;;28.40;99.90;;;;;;5034697;28;20073;-65
2022/08/25 09:57:49;;;;;;;4.63;1.50;;;28.50;99.90;;;;;;5035103;28;20038;-65
2022/08/25 10:00:33;;;;;;;4.75;1.40;;;28.50;99.90;;;;;;5017404;28;20049;-65
2022/08/25 10:03:19;;;;;;;;;;;28.50;99.90;;;;;;5017707;28;20050;-66
2022/08/25 10:05:44;;;;;;;9.77;1.85;;;29.10;99.90;;;;;;5016415;28;20016;-65
2022/08/25 10:08:21;;;;;;;14.05;1.70;;;28.90;99.90;;;;;;5026781;28;20117;-64
2022/08/25 10:10:54;;;;;;;4.05;1.77;;;30.30;99.90;;;;;;5014703;28;20523;-65
2022/08/25 10:13:22;;;;;;;3.67;1.10;;;28.90;99.90;;;;;;5015834;28;20044;-65
2022/08/25 10:16:03;;;;;;;3.58;1.10;;;28.70;99.90;;;;;;5033758;28;20080;-64
2022/08/25 10:18:29;;;;;;;3.03;0.90;;;28.90;99.90;;;;;;5033910;28;20069;-64
2022/08/25 10:21:11;;;;;;;4.57;1.30;;;30.90;99.90;;;;;;5033602;28;20069;-65
2022/08/25 10:23:41;;;;;;;5.20;1.10;;;29.10;99.90;;;;;;5032602;28;20049;-65
2022/08/25 10:26:32;;;;;;;3.15;1.17;;;29.20;99.90;;;;;;5033680;28;20088;-64
2022/08/25 10:29:45;;;;;;;6.15;1.70;;;29.30;99.90;;;;;;5033741;28;20122;-64
2022/08/25 10:32:26;;;;;;;4.25;1.30;;;29.40;99.90;;;;;;5014391;28;20050;-65
2022/08/25 10:34:57;;;;;;;2.78;1.17;;;30.50;99.90;;;;;;5016613;28;20140;-65
2022/08/25 10:38:02;;;;;;;8.25;1.45;;;30.50;99.90;;;;;;5034203;28;20041;-65
2022/08/25 10:40:43;;;;;;;4.72;1.42;;;29.10;99.90;;;;;;5030063;28;20034;-65
2022/08/25 10:43:58;;;;;;;4.38;1.42;;;29.30;99.90;;;;;;5011416;28;20492;-65
2022/08/25 10:46:30;;;;;;;;;;;29.00;99.90;;;;;;5006916;28;20052;-65
2022/08/25 10:49:07;;;;;;;3.70;1.02;;;29.80;99.90;;;;;;5015668;28;20445;-65
2022/08/25 10:51:45;;;;;;;6.15;1.10;;;29.50;99.90;;;;;;5013234;28;20034;-65
2022/08/25 10:54:47;;;;;;;5.38;1.30;;;29.50;99.90;;;;;;5033592;28;20087;-64
2022/08/25 10:57:26;;;;;;;8.07;1.52;;;29.60;99.20;;;;;;5033160;28;20565;-65
2022/08/25 11:00:08;;;;;;;7.05;1.15;;;31.00;99.90;;;;;;4999263;28;20041;-65
2022/08/25 11:02:43;;;;;;;6.10;1.00;;;29.40;99.90;;;;;;5015655;28;20056;-65
2022/08/25 11:05:39;;;;;;;7.75;1.48;;;29.30;99.90;;;;;;5012079;28;20057;-65
2022/08/25 11:08:14;;;;;;;4.75;0.93;;;29.40;99.50;;;;;;5012278;28;20057;-65
2022/08/25 11:10:48;;;;;;;3.13;1.27;;;29.50;99.90;;;;;;5013222;28;20042;-65
2022/08/25 11:13:25;;;;;;;6.35;1.05;;;29.40;98.80;;;;;;5013775;28;20057;-65
2022/08/25 11:15:57;;;;;;;5.45;1.30;;;29.70;99.90;;;;;;5013287;28;20561;-64
2022/08/25 11:18:26;;;;;;;2.63;1.20;;;29.50;99.90;;;;;;5012217;28;20041;-65
2022/08/25 11:21:00;;;;;;;4.38;1.30;;;31.10;99.90;;;;;;5013059;28;20484;-65
2022/08/25 11:23:52;;;;;;;4.07;1.60;;;29.60;99.80;;;;;;5009670;28;20084;-65
2022/08/25 11:26:28;;;;;;;2.17;1.10;;;29.60;99.90;;;;;;5011962;28;20088;-65
2022/08/25 11:29:01;;;;;;;4.97;1.63;;;29.50;99.90;;;;;;5009371;28;20485;-65
2022/08/25 11:31:27;;;;;;;3.85;1.40;;;30.80;99.90;;;;;;5011873;28;20080;-65
2022/08/25 11:33:54;;;;;;;4.43;1.10;;;29.80;99.50;;;;;;5008991;28;20069;-65
2022/08/25 11:36:42;;;;;;;3.53;1.00;;;31.50;99.90;;;;;;5013010;28;20088;-65
2022/08/25 11:39:34;;;;;;;3.60;1.27;;;29.70;99.90;;;;;;5012872;28;20400;-65
2022/08/25 11:42:14;;;;;;;2.15;0.98;;;29.90;99.90;;;;;;5010733;28;20045;-65
2022/08/25 11:45:03;;;;;;;3.22;1.10;;;29.80;98.50;;;;;;5013118;28;20049;-65
2022/08/25 11:47:59;;;;;;;5.13;1.42;;;29.70;99.20;;;;;;5010482;28;20030;-65
2022/08/25 11:50:34;;;;;;;5.88;1.73;;;29.90;98.90;;;;;;5006636;28;20046;-65
2022/08/25 11:53:08;;;;;;;3.83;1.08;;;31.40;99.80;;;;;;5005983;28;20451;-65
2022/08/25 11:55:37;;;;;;;2.70;1.20;;;29.80;98.90;;;;;;4998781;28;20465;-65
2022/08/25 11:58:32;;;;;;;3.47;1.23;;;29.80;98.20;;;;;;4998033;28;20050;-65
2022/08/25 12:01:02;;;;;;;4.28;0.95;;;29.90;99.00;;;;;;4997920;28;20038;-65
2022/08/25 12:03:31;;;;;;;2.40;0.77;;;30.10;98.30;;;;;;5015040;28;20045;-65
2022/08/25 12:06:22;;;;;;;6.68;1.45;;;31.70;98.80;;;;;;5009571;28;20171;-65
2022/08/25 12:08:59;;;;;;;5.88;1.40;;;29.70;98.80;;;;;;5015361;28;20080;-66
2022/08/25 12:11:37;;;;;;;4.88;0.90;;;29.90;98.30;;;;;;5028348;28;20033;-65
2022/08/25 12:14:18;;;;;;;2.97;1.42;;;30.40;98.60;;;;;;5014585;28;20468;-65
2022/08/25 12:16:50;;;;;;;2.15;1.00;;;30.10;97.10;;;;;;5009242;28;20050;-65
2022/08/25 12:19:34;;;;;;;2.53;0.82;;;31.20;97.70;;;;;;5014490;28;20483;-65
2022/08/25 12:22:02;;;;;;;3.93;1.27;;;30.90;97.40;;;;;;5010385;28;20043;-65
2022/08/25 12:24:43;;;;;;;4.85;1.10;;;30.00;96.80;;;;;;5032144;28;20280;-64
2022/08/25 12:27:19;;;;;;;2.47;0.85;;;29.90;96.20;;;;;;5014724;28;20394;-65
2022/08/25 12:29:57;;;;;;;4.88;1.15;;;29.70;96.80;;;;;;5012992;28;20069;-65
2022/08/25 12:33:10;;;;;;;6.57;1.20;;;29.70;96.50;;;;;;5012541;28;20040;-65
2022/08/25 12:35:48;;;;;;;2.35;0.95;;;30.10;96.70;;;;;;4997802;28;20129;-65
2022/08/25 12:38:25;;;;;;;6.75;1.17;;;29.80;97.40;;;;;;5008473;28;20396;-64
2022/08/25 12:41:17;;;;;;;2.60;1.00;;;30.00;96.90;;;;;;5025816;28;20132;-64
2022/08/25 12:43:53;;;;;;;3.47;0.90;;;30.10;96.50;;;;;;5010661;28;20407;-65
2022/08/25 12:46:18;;;;;;;5.10;1.13;;;30.90;96.00;;;;;;5014386;28;20041;-65
2022/08/25 12:48:56;;;;;;;2.65;1.20;;;30.10;97.00;;;;;;5032201;28;20037;-65
2022/08/25 12:51:53;;;;;;;3.45;1.10;;;30.40;97.70;;;;;;5031829;28;20041;-65
2022/08/25 12:54:31;;;;;;;1.25;0.43;;;30.00;96.60;;;;;;5014304;28;20038;-65
2022/08/25 12:57:01;;;;;;;3.63;1.00;;;30.30;95.20;;;;;;5014737;28;20080;-65
2022/08/25 12:59:34;;;;;;;1.90;0.80;;;30.70;95.70;;;;;;5032199;28;20033;-65
2022/08/25 13:02:20;;;;;;;4.22;0.90;;;30.40;95.70;;;;;;5014225;28;20049;-65
2022/08/25 13:05:24;;;;;;;3.35;1.15;;;30.20;95.80;;;;;;5001210;28;20523;-63
2022/08/25 13:08:09;;;;;;;3.53;1.10;;;30.40;95.20;;;;;;5034039;28;20099;-65
2022/08/25 13:10:55;;;;;;;2.65;1.15;;;30.40;95.30;;;;;;5016638;28;20041;-67
2022/08/25 13:14:16;;;;;;;3.47;1.35;;;30.40;95.00;;;;;;5027974;28;20068;-66